sensor_id;sensor_type;location;lat;lon;timestamp;P1;durP1;ratioP1;P2;durP2;ratioP2
68247;SDS011;55064;49.636;12.164;2023-06-10T00:02:12;9.20;;;4.90;;
68247;SDS011;55064;49.636;12.164;2023-06-10T00:04:37;9.77;;;5.00;;
68247;SDS011;55064;49.636;12.164;2023-06-10T00:07:03;8.70;;;5.03;;
68247;SDS011;55064;49.636;12.164;2023-06-10T00:09:33;8.90;;;5.25;;
68247;SDS011;55064;49.636;12.164;2023-06-10T00:12:05;9.32;;;5.35;;
68247;SDS011;55064;49.636;12.164;2023-06-10T00:14:35;9.02;;;5.00;;
68247;SDS011;55064;49.636;12.164;2023-06-10T00:17:02;9.43;;;5.50;;
68247;SDS011;55064;49.636;12.164;2023-06-10T00:19:29;8.60;;;5.03;;
68247;SDS011;55064;49.636;12.164;2023-06-10T00:21:58;9.88;;;5.55;;
68247;SDS011;55064;49.636;12.164;2023-06-10T00:24:28;11.30;;;5.37;;
68247;SDS011;55064;49.636;12.164;2023-06-10T00:26:54;8.68;;;5.07;;
68247;SDS011;55064;49.636;12.164;2023-06-10T00:29:19;9.13;;;5.60;;
68247;SDS011;55064;49.636;12.164;2023-06-10T00:31:45;9.17;;;5.33;;
68247;SDS011;55064;49.636;12.164;2023-06-10T00:34:11;9.23;;;5.37;;
68247;SDS011;55064;49.636;12.164;2023-06-10T00:36:37;11.60;;;5.57;;
68247;SDS011;55064;49.636;12.164;2023-06-10T00:39:02;9.53;;;5.87;;
68247;SDS011;55064;49.636;12.164;2023-06-10T00:41:29;11.65;;;5.53;;
68247;SDS011;55064;49.636;12.164;2023-06-10T00:43:55;8.80;;;5.22;;
68247;SDS011;55064;49.636;12.164;2023-06-10T00:46:23;9.77;;;5.13;;
68247;SDS011;55064;49.636;12.164;2023-06-10T00:48:52;9.77;;;5.45;;
68247;SDS011;55064;49.636;12.164;2023-06-10T00:51:19;10.68;;;5.28;;
68247;SDS011;55064;49.636;12.164;2023-06-10T00:53:45;10.50;;;5.22;;
68247;SDS011;55064;49.636;12.164;2023-06-10T00:56:12;9.63;;;5.60;;
68247;SDS011;55064;49.636;12.164;2023-06-10T00:58:38;10.13;;;5.38;;
68247;SDS011;55064;49.636;12.164;2023-06-10T01:01:04;9.80;;;5.63;;
68247;SDS011;55064;49.636;12.164;2023-06-10T01:03:34;9.43;;;5.37;;
68247;SDS011;55064;49.636;12.164;2023-06-10T01:06:18;8.98;;;5.38;;
68247;SDS011;55064;49.636;12.164;2023-06-10T01:11:16;9.68;;;4.85;;
68247;SDS011;55064;49.636;12.164;2023-06-10T01:13:45;10.05;;;5.65;;
68247;SDS011;55064;49.636;12.164;2023-06-10T01:16:16;10.13;;;5.63;;
68247;SDS011;55064;49.636;12.164;2023-06-10T01:18:42;9.80;;;5.60;;
68247;SDS011;55064;49.636;12.164;2023-06-10T01:21:08;11.00;;;5.60;;
68247;SDS011;55064;49.636;12.164;2023-06-10T01:23:34;10.30;;;6.18;;
68247;SDS011;55064;49.636;12.164;2023-06-10T01:26:00;10.03;;;5.73;;
68247;SDS011;55064;49.636;12.164;2023-06-10T01:28:33;10.43;;;6.03;;
68247;SDS011;55064;49.636;12.164;2023-06-10T01:33:41;10.90;;;5.93;;
68247;SDS011;55064;49.636;12.164;2023-06-10T01:36:08;11.15;;;5.60;;
68247;SDS011;55064;49.636;12.164;2023-06-10T01:38:44;10.13;;;5.72;;
68247;SDS011;55064;49.636;12.164;2023-06-10T01:41:15;9.57;;;5.20;;
68247;SDS011;55064;49.636;12.164;2023-06-10T01:43:43;11.60;;;6.00;;
68247;SDS011;55064;49.636;12.164;2023-06-10T01:46:16;11.33;;;5.97;;
68247;SDS011;55064;49.636;12.164;2023-06-10T01:48:44;10.65;;;6.03;;
68247;SDS011;55064;49.636;12.164;2023-06-10T01:51:10;9.67;;;5.50;;
68247;SDS011;55064;49.636;12.164;2023-06-10T01:53:39;9.55;;;5.32;;
68247;SDS011;55064;49.636;12.164;2023-06-10T01:56:04;11.07;;;5.80;;
68247;SDS011;55064;49.636;12.164;2023-06-10T01:58:30;10.73;;;5.60;;
68247;SDS011;55064;49.636;12.164;2023-06-10T02:00:55;10.43;;;5.97;;
68247;SDS011;55064;49.636;12.164;2023-06-10T02:03:20;10.33;;;5.83;;
68247;SDS011;55064;49.636;12.164;2023-06-10T02:05:46;12.93;;;5.90;;
68247;SDS011;55064;49.636;12.164;2023-06-10T02:08:11;10.93;;;6.17;;
68247;SDS011;55064;49.636;12.164;2023-06-10T02:10:39;9.87;;;5.73;;
68247;SDS011;55064;49.636;12.164;2023-06-10T02:13:05;9.77;;;5.72;;
68247;SDS011;55064;49.636;12.164;2023-06-10T02:15:31;12.00;;;5.70;;
68247;SDS011;55064;49.636;12.164;2023-06-10T02:17:59;12.07;;;6.10;;
68247;SDS011;55064;49.636;12.164;2023-06-10T02:20:27;11.57;;;6.15;;
68247;SDS011;55064;49.636;12.164;2023-06-10T02:22:52;10.57;;;5.77;;
68247;SDS011;55064;49.636;12.164;2023-06-10T02:25:18;10.17;;;6.00;;
68247;SDS011;55064;49.636;12.164;2023-06-10T02:27:43;10.85;;;6.05;;
68247;SDS011;55064;49.636;12.164;2023-06-10T02:30:09;10.37;;;5.70;;
68247;SDS011;55064;49.636;12.164;2023-06-10T02:32:37;9.85;;;5.70;;
68247;SDS011;55064;49.636;12.164;2023-06-10T02:35:03;11.50;;;6.50;;
68247;SDS011;55064;49.636;12.164;2023-06-10T02:37:28;10.20;;;5.97;;
68247;SDS011;55064;49.636;12.164;2023-06-10T02:39:56;10.00;;;5.68;;
68247;SDS011;55064;49.636;12.164;2023-06-10T02:42:21;10.07;;;5.80;;
68247;SDS011;55064;49.636;12.164;2023-06-10T02:44:49;10.77;;;6.20;;
68247;SDS011;55064;49.636;12.164;2023-06-10T02:47:15;10.10;;;5.77;;
68247;SDS011;55064;49.636;12.164;2023-06-10T02:49:41;10.20;;;5.82;;
68247;SDS011;55064;49.636;12.164;2023-06-10T02:52:09;10.37;;;6.07;;
68247;SDS011;55064;49.636;12.164;2023-06-10T02:54:37;9.85;;;5.88;;
68247;SDS011;55064;49.636;12.164;2023-06-10T02:57:03;10.13;;;5.55;;
68247;SDS011;55064;49.636;12.164;2023-06-10T02:59:31;11.02;;;6.22;;
68247;SDS011;55064;49.636;12.164;2023-06-10T03:01:56;10.40;;;5.80;;
68247;SDS011;55064;49.636;12.164;2023-06-10T03:04:21;10.47;;;6.00;;
68247;SDS011;55064;49.636;12.164;2023-06-10T03:06:48;10.95;;;6.32;;
68247;SDS011;55064;49.636;12.164;2023-06-10T03:09:16;10.73;;;6.20;;
68247;SDS011;55064;49.636;12.164;2023-06-10T03:11:41;10.70;;;5.70;;
68247;SDS011;55064;49.636;12.164;2023-06-10T03:14:09;10.25;;;5.85;;
68247;SDS011;55064;49.636;12.164;2023-06-10T03:16:35;10.93;;;6.27;;
68247;SDS011;55064;49.636;12.164;2023-06-10T03:19:05;10.13;;;6.10;;
68247;SDS011;55064;49.636;12.164;2023-06-10T03:21:31;10.93;;;6.47;;
68247;SDS011;55064;49.636;12.164;2023-06-10T03:23:56;11.32;;;5.95;;
68247;SDS011;55064;49.636;12.164;2023-06-10T03:26:22;10.63;;;6.20;;
68247;SDS011;55064;49.636;12.164;2023-06-10T03:28:47;10.83;;;6.00;;
68247;SDS011;55064;49.636;12.164;2023-06-10T03:31:13;10.95;;;6.32;;
68247;SDS011;55064;49.636;12.164;2023-06-10T03:33:38;11.10;;;6.23;;
68247;SDS011;55064;49.636;12.164;2023-06-10T03:36:06;10.55;;;6.03;;
68247;SDS011;55064;49.636;12.164;2023-06-10T03:38:32;12.00;;;6.70;;
68247;SDS011;55064;49.636;12.164;2023-06-10T03:40:58;13.97;;;6.93;;
68247;SDS011;55064;49.636;12.164;2023-06-10T03:43:26;12.60;;;7.07;;
68247;SDS011;55064;49.636;12.164;2023-06-10T03:45:52;10.88;;;6.53;;
68247;SDS011;55064;49.636;12.164;2023-06-10T03:48:21;10.73;;;6.45;;
68247;SDS011;55064;49.636;12.164;2023-06-10T03:50:49;13.32;;;7.10;;
68247;SDS011;55064;49.636;12.164;2023-06-10T03:53:17;11.52;;;6.93;;
68247;SDS011;55064;49.636;12.164;2023-06-10T03:55:43;11.23;;;6.30;;
68247;SDS011;55064;49.636;12.164;2023-06-10T03:58:08;11.67;;;6.80;;
68247;SDS011;55064;49.636;12.164;2023-06-10T04:00:33;12.47;;;6.60;;
68247;SDS011;55064;49.636;12.164;2023-06-10T04:03:06;13.20;;;6.88;;
68247;SDS011;55064;49.636;12.164;2023-06-10T04:05:34;12.15;;;6.38;;
68247;SDS011;55064;49.636;12.164;2023-06-10T04:08:00;9.93;;;5.97;;
68247;SDS011;55064;49.636;12.164;2023-06-10T04:10:26;10.80;;;6.73;;
68247;SDS011;55064;49.636;12.164;2023-06-10T04:12:52;11.07;;;7.10;;
68247;SDS011;55064;49.636;12.164;2023-06-10T04:15:20;10.57;;;6.53;;
68247;SDS011;55064;49.636;12.164;2023-06-10T04:17:48;11.70;;;6.83;;
68247;SDS011;55064;49.636;12.164;2023-06-10T04:20:14;10.98;;;7.18;;
68247;SDS011;55064;49.636;12.164;2023-06-10T04:22:39;11.23;;;7.60;;
68247;SDS011;55064;49.636;12.164;2023-06-10T04:25:05;12.15;;;7.00;;
68247;SDS011;55064;49.636;12.164;2023-06-10T04:27:32;11.05;;;7.07;;
68247;SDS011;55064;49.636;12.164;2023-06-10T04:29:58;11.53;;;6.93;;
68247;SDS011;55064;49.636;12.164;2023-06-10T04:32:23;10.77;;;6.93;;
68247;SDS011;55064;49.636;12.164;2023-06-10T04:34:48;12.63;;;7.30;;
68247;SDS011;55064;49.636;12.164;2023-06-10T04:37:17;10.40;;;6.63;;
68247;SDS011;55064;49.636;12.164;2023-06-10T04:39:43;11.32;;;7.35;;
68247;SDS011;55064;49.636;12.164;2023-06-10T04:42:11;11.85;;;7.55;;
68247;SDS011;55064;49.636;12.164;2023-06-10T04:44:40;11.13;;;7.28;;
68247;SDS011;55064;49.636;12.164;2023-06-10T04:47:05;12.45;;;7.50;;
68247;SDS011;55064;49.636;12.164;2023-06-10T04:49:32;11.27;;;7.43;;
68247;SDS011;55064;49.636;12.164;2023-06-10T04:51:58;10.80;;;7.63;;
68247;SDS011;55064;49.636;12.164;2023-06-10T04:54:24;11.38;;;7.90;;
68247;SDS011;55064;49.636;12.164;2023-06-10T04:56:50;11.60;;;7.50;;
68247;SDS011;55064;49.636;12.164;2023-06-10T04:59:15;11.90;;;8.07;;
68247;SDS011;55064;49.636;12.164;2023-06-10T05:01:42;11.60;;;7.90;;
68247;SDS011;55064;49.636;12.164;2023-06-10T05:04:07;11.25;;;7.80;;
68247;SDS011;55064;49.636;12.164;2023-06-10T05:06:33;13.77;;;8.02;;
68247;SDS011;55064;49.636;12.164;2023-06-10T05:08:58;11.47;;;7.70;;
68247;SDS011;55064;49.636;12.164;2023-06-10T05:11:23;11.90;;;7.77;;
68247;SDS011;55064;49.636;12.164;2023-06-10T05:13:49;12.07;;;8.47;;
68247;SDS011;55064;49.636;12.164;2023-06-10T05:16:15;11.37;;;7.70;;
68247;SDS011;55064;49.636;12.164;2023-06-10T05:18:42;12.35;;;8.13;;
68247;SDS011;55064;49.636;12.164;2023-06-10T05:21:08;11.63;;;8.00;;
68247;SDS011;55064;49.636;12.164;2023-06-10T05:23:36;12.25;;;8.07;;
68247;SDS011;55064;49.636;12.164;2023-06-10T05:26:04;12.63;;;8.10;;
68247;SDS011;55064;49.636;12.164;2023-06-10T05:28:29;12.77;;;8.20;;
68247;SDS011;55064;49.636;12.164;2023-06-10T05:30:55;12.80;;;8.20;;
68247;SDS011;55064;49.636;12.164;2023-06-10T05:33:21;12.07;;;7.90;;
68247;SDS011;55064;49.636;12.164;2023-06-10T05:35:48;12.43;;;8.40;;
68247;SDS011;55064;49.636;12.164;2023-06-10T05:38:15;12.82;;;8.40;;
68247;SDS011;55064;49.636;12.164;2023-06-10T05:40:41;13.25;;;8.15;;
68247;SDS011;55064;49.636;12.164;2023-06-10T05:43:07;11.97;;;8.13;;
68247;SDS011;55064;49.636;12.164;2023-06-10T05:45:33;13.23;;;8.38;;
68247;SDS011;55064;49.636;12.164;2023-06-10T05:48:00;12.25;;;7.85;;
68247;SDS011;55064;49.636;12.164;2023-06-10T05:50:26;13.73;;;8.70;;
68247;SDS011;55064;49.636;12.164;2023-06-10T05:52:51;13.32;;;8.60;;
68247;SDS011;55064;49.636;12.164;2023-06-10T05:55:19;13.53;;;8.40;;
68247;SDS011;55064;49.636;12.164;2023-06-10T05:57:45;11.75;;;7.78;;
68247;SDS011;55064;49.636;12.164;2023-06-10T06:00:10;13.57;;;9.10;;
68247;SDS011;55064;49.636;12.164;2023-06-10T06:02:38;12.73;;;8.50;;
68247;SDS011;55064;49.636;12.164;2023-06-10T06:05:06;13.25;;;8.43;;
68247;SDS011;55064;49.636;12.164;2023-06-10T06:07:32;15.00;;;8.60;;
68247;SDS011;55064;49.636;12.164;2023-06-10T06:09:57;12.20;;;8.00;;
68247;SDS011;55064;49.636;12.164;2023-06-10T06:12:26;13.30;;;8.68;;
68247;SDS011;55064;49.636;12.164;2023-06-10T06:14:51;12.30;;;8.00;;
68247;SDS011;55064;49.636;12.164;2023-06-10T06:17:16;12.70;;;8.40;;
68247;SDS011;55064;49.636;12.164;2023-06-10T06:19:42;14.98;;;8.80;;
68247;SDS011;55064;49.636;12.164;2023-06-10T06:22:08;15.73;;;9.63;;
68247;SDS011;55064;49.636;12.164;2023-06-10T06:24:36;13.95;;;8.50;;
68247;SDS011;55064;49.636;12.164;2023-06-10T06:27:02;14.30;;;8.70;;
68247;SDS011;55064;49.636;12.164;2023-06-10T06:29:27;13.75;;;9.20;;
68247;SDS011;55064;49.636;12.164;2023-06-10T06:31:54;12.70;;;7.70;;
68247;SDS011;55064;49.636;12.164;2023-06-10T06:34:22;14.52;;;8.57;;
68247;SDS011;55064;49.636;12.164;2023-06-10T06:36:47;13.10;;;8.60;;
68247;SDS011;55064;49.636;12.164;2023-06-10T06:39:13;14.00;;;8.50;;
68247;SDS011;55064;49.636;12.164;2023-06-10T06:41:38;13.83;;;8.60;;
68247;SDS011;55064;49.636;12.164;2023-06-10T06:44:04;12.27;;;8.30;;
68247;SDS011;55064;49.636;12.164;2023-06-10T06:46:29;11.47;;;7.43;;
68247;SDS011;55064;49.636;12.164;2023-06-10T06:48:55;11.07;;;7.57;;
68247;SDS011;55064;49.636;12.164;2023-06-10T06:51:20;11.83;;;7.67;;
68247;SDS011;55064;49.636;12.164;2023-06-10T06:53:47;12.13;;;7.10;;
68247;SDS011;55064;49.636;12.164;2023-06-10T06:56:17;9.20;;;5.97;;
68247;SDS011;55064;49.636;12.164;2023-06-10T06:58:43;8.77;;;4.90;;
68247;SDS011;55064;49.636;12.164;2023-06-10T07:01:08;9.90;;;4.75;;
68247;SDS011;55064;49.636;12.164;2023-06-10T07:03:33;9.20;;;5.07;;
68247;SDS011;55064;49.636;12.164;2023-06-10T07:06:01;9.87;;;4.80;;
68247;SDS011;55064;49.636;12.164;2023-06-10T07:08:27;8.07;;;5.25;;
68247;SDS011;55064;49.636;12.164;2023-06-10T07:10:57;7.75;;;5.00;;
68247;SDS011;55064;49.636;12.164;2023-06-10T07:13:24;7.80;;;4.60;;
68247;SDS011;55064;49.636;12.164;2023-06-10T07:15:54;8.02;;;5.18;;
68247;SDS011;55064;49.636;12.164;2023-06-10T07:18:19;9.23;;;5.85;;
68247;SDS011;55064;49.636;12.164;2023-06-10T07:20:44;8.57;;;4.90;;
68247;SDS011;55064;49.636;12.164;2023-06-10T07:23:10;8.70;;;4.57;;
68247;SDS011;55064;49.636;12.164;2023-06-10T07:25:35;10.57;;;5.35;;
68247;SDS011;55064;49.636;12.164;2023-06-10T07:28:03;8.03;;;5.03;;
68247;SDS011;55064;49.636;12.164;2023-06-10T07:30:28;8.95;;;5.30;;
68247;SDS011;55064;49.636;12.164;2023-06-10T07:32:54;9.13;;;5.50;;
68247;SDS011;55064;49.636;12.164;2023-06-10T07:35:20;9.00;;;5.55;;
68247;SDS011;55064;49.636;12.164;2023-06-10T07:37:48;8.65;;;4.30;;
68247;SDS011;55064;49.636;12.164;2023-06-10T07:40:15;8.00;;;5.07;;
68247;SDS011;55064;49.636;12.164;2023-06-10T07:42:40;8.40;;;5.38;;
68247;SDS011;55064;49.636;12.164;2023-06-10T07:45:06;10.27;;;5.93;;
68247;SDS011;55064;49.636;12.164;2023-06-10T07:47:33;8.07;;;5.25;;
68247;SDS011;55064;49.636;12.164;2023-06-10T07:49:59;10.70;;;6.13;;
68247;SDS011;55064;49.636;12.164;2023-06-10T07:52:26;9.57;;;5.33;;
68247;SDS011;55064;49.636;12.164;2023-06-10T07:54:55;9.13;;;5.50;;
68247;SDS011;55064;49.636;12.164;2023-06-10T07:57:23;8.40;;;5.32;;
68247;SDS011;55064;49.636;12.164;2023-06-10T07:59:51;9.37;;;5.30;;
68247;SDS011;55064;49.636;12.164;2023-06-10T08:02:16;8.15;;;5.35;;
68247;SDS011;55064;49.636;12.164;2023-06-10T08:04:44;10.23;;;5.50;;
68247;SDS011;55064;49.636;12.164;2023-06-10T08:07:09;10.57;;;5.65;;
68247;SDS011;55064;49.636;12.164;2023-06-10T08:09:35;9.07;;;5.10;;
68247;SDS011;55064;49.636;12.164;2023-06-10T08:12:03;8.98;;;5.30;;
68247;SDS011;55064;49.636;12.164;2023-06-10T08:14:29;8.40;;;4.90;;
68247;SDS011;55064;49.636;12.164;2023-06-10T08:16:54;8.00;;;5.20;;
68247;SDS011;55064;49.636;12.164;2023-06-10T08:19:22;8.53;;;5.27;;
68247;SDS011;55064;49.636;12.164;2023-06-10T08:21:47;7.90;;;4.73;;
68247;SDS011;55064;49.636;12.164;2023-06-10T08:24:13;8.10;;;4.40;;
68247;SDS011;55064;49.636;12.164;2023-06-10T08:26:43;7.72;;;4.65;;
68247;SDS011;55064;49.636;12.164;2023-06-10T08:29:11;7.50;;;4.50;;
68247;SDS011;55064;49.636;12.164;2023-06-10T08:31:37;7.07;;;4.38;;
68247;SDS011;55064;49.636;12.164;2023-06-10T08:34:06;8.57;;;4.72;;
68247;SDS011;55064;49.636;12.164;2023-06-10T08:36:31;8.77;;;4.70;;
68247;SDS011;55064;49.636;12.164;2023-06-10T08:38:57;7.73;;;4.57;;
68247;SDS011;55064;49.636;12.164;2023-06-10T08:41:25;8.87;;;4.57;;
68247;SDS011;55064;49.636;12.164;2023-06-10T08:46:29;7.80;;;4.50;;
68247;SDS011;55064;49.636;12.164;2023-06-10T08:48:57;7.05;;;4.75;;
68247;SDS011;55064;49.636;12.164;2023-06-10T08:51:27;7.72;;;4.47;;
68247;SDS011;55064;49.636;12.164;2023-06-10T08:53:58;6.85;;;4.07;;
68247;SDS011;55064;49.636;12.164;2023-06-10T08:56:28;6.90;;;4.27;;
68247;SDS011;55064;49.636;12.164;2023-06-10T08:58:57;6.93;;;4.18;;
68247;SDS011;55064;49.636;12.164;2023-06-10T09:01:24;7.97;;;4.40;;
68247;SDS011;55064;49.636;12.164;2023-06-10T09:03:50;7.95;;;4.00;;
68247;SDS011;55064;49.636;12.164;2023-06-10T09:06:16;7.30;;;4.00;;
68247;SDS011;55064;49.636;12.164;2023-06-10T09:08:43;7.72;;;3.97;;
68247;SDS011;55064;49.636;12.164;2023-06-10T09:11:11;7.30;;;3.70;;
68247;SDS011;55064;49.636;12.164;2023-06-10T09:13:36;6.35;;;3.70;;
68247;SDS011;55064;49.636;12.164;2023-06-10T09:16:04;7.67;;;4.00;;
68247;SDS011;55064;49.636;12.164;2023-06-10T09:18:30;6.88;;;3.80;;
68247;SDS011;55064;49.636;12.164;2023-06-10T09:20:59;6.07;;;3.60;;
68247;SDS011;55064;49.636;12.164;2023-06-10T09:23:25;6.80;;;3.53;;
68247;SDS011;55064;49.636;12.164;2023-06-10T09:25:57;6.55;;;3.40;;
68247;SDS011;55064;49.636;12.164;2023-06-10T09:28:23;6.03;;;3.33;;
68247;SDS011;55064;49.636;12.164;2023-06-10T09:30:49;6.50;;;3.63;;
68247;SDS011;55064;49.636;12.164;2023-06-10T09:33:14;6.70;;;3.73;;
68247;SDS011;55064;49.636;12.164;2023-06-10T09:35:48;6.35;;;3.25;;
68247;SDS011;55064;49.636;12.164;2023-06-10T09:38:19;5.80;;;3.50;;
68247;SDS011;55064;49.636;12.164;2023-06-10T09:40:49;6.25;;;3.78;;
68247;SDS011;55064;49.636;12.164;2023-06-10T09:43:18;7.75;;;3.55;;
68247;SDS011;55064;49.636;12.164;2023-06-10T09:45:43;6.13;;;3.60;;
68247;SDS011;55064;49.636;12.164;2023-06-10T09:48:09;6.33;;;3.80;;
68247;SDS011;55064;49.636;12.164;2023-06-10T09:50:44;6.07;;;3.80;;
68247;SDS011;55064;49.636;12.164;2023-06-10T09:53:10;6.72;;;3.60;;
68247;SDS011;55064;49.636;12.164;2023-06-10T09:55:39;5.63;;;3.25;;
68247;SDS011;55064;49.636;12.164;2023-06-10T09:58:05;8.15;;;3.60;;
68247;SDS011;55064;49.636;12.164;2023-06-10T10:00:33;6.17;;;3.80;;
68247;SDS011;55064;49.636;12.164;2023-06-10T10:02:59;6.05;;;3.67;;
68247;SDS011;55064;49.636;12.164;2023-06-10T10:05:25;6.00;;;3.53;;
68247;SDS011;55064;49.636;12.164;2023-06-10T10:07:52;6.35;;;3.20;;
68247;SDS011;55064;49.636;12.164;2023-06-10T10:10:18;6.27;;;3.43;;
68247;SDS011;55064;49.636;12.164;2023-06-10T10:12:48;5.53;;;3.00;;
68247;SDS011;55064;49.636;12.164;2023-06-10T10:15:21;5.82;;;3.38;;
68247;SDS011;55064;49.636;12.164;2023-06-10T10:20:14;5.75;;;2.85;;
68247;SDS011;55064;49.636;12.164;2023-06-10T10:22:45;6.47;;;2.87;;
68247;SDS011;55064;49.636;12.164;2023-06-10T10:25:28;5.25;;;3.03;;
68247;SDS011;55064;49.636;12.164;2023-06-10T10:30:46;7.20;;;3.25;;
68247;SDS011;55064;49.636;12.164;2023-06-10T10:33:35;5.60;;;3.20;;
68247;SDS011;55064;49.636;12.164;2023-06-10T10:36:08;5.83;;;3.10;;
68247;SDS011;55064;49.636;12.164;2023-06-10T10:38:33;5.35;;;3.00;;
68247;SDS011;55064;49.636;12.164;2023-06-10T10:41:00;7.75;;;4.07;;
68247;SDS011;55064;49.636;12.164;2023-06-10T10:43:26;5.40;;;3.20;;
68247;SDS011;55064;49.636;12.164;2023-06-10T10:46:00;5.70;;;3.38;;
68247;SDS011;55064;49.636;12.164;2023-06-10T10:48:28;5.90;;;3.28;;
68247;SDS011;55064;49.636;12.164;2023-06-10T10:50:59;6.63;;;2.88;;
68247;SDS011;55064;49.636;12.164;2023-06-10T10:53:25;5.00;;;2.73;;
68247;SDS011;55064;49.636;12.164;2023-06-10T10:58:28;5.82;;;2.83;;
68247;SDS011;55064;49.636;12.164;2023-06-10T11:00:54;4.90;;;2.50;;
68247;SDS011;55064;49.636;12.164;2023-06-10T11:03:20;6.70;;;3.07;;
68247;SDS011;55064;49.636;12.164;2023-06-10T11:05:46;5.07;;;2.60;;
68247;SDS011;55064;49.636;12.164;2023-06-10T11:08:15;5.35;;;2.40;;
68247;SDS011;55064;49.636;12.164;2023-06-10T11:11:00;5.07;;;2.83;;
68247;SDS011;55064;49.636;12.164;2023-06-10T11:13:26;4.70;;;2.57;;
68247;SDS011;55064;49.636;12.164;2023-06-10T11:15:56;5.50;;;3.05;;
68247;SDS011;55064;49.636;12.164;2023-06-10T11:29:00;5.90;;;2.63;;
68247;SDS011;55064;49.636;12.164;2023-06-10T11:31:30;5.10;;;2.60;;
68247;SDS011;55064;49.636;12.164;2023-06-10T11:33:59;6.03;;;2.70;;
68247;SDS011;55064;49.636;12.164;2023-06-10T11:36:29;7.93;;;2.75;;
68247;SDS011;55064;49.636;12.164;2023-06-10T11:38:56;6.30;;;2.80;;
68247;SDS011;55064;49.636;12.164;2023-06-10T11:41:24;5.30;;;2.58;;
68247;SDS011;55064;49.636;12.164;2023-06-10T11:43:53;4.57;;;2.40;;
68247;SDS011;55064;49.636;12.164;2023-06-10T11:46:21;4.65;;;2.35;;
68247;SDS011;55064;49.636;12.164;2023-06-10T11:48:53;6.22;;;2.47;;
68247;SDS011;55064;49.636;12.164;2023-06-10T11:51:26;5.15;;;2.65;;
68247;SDS011;55064;49.636;12.164;2023-06-10T11:53:53;6.17;;;2.50;;
68247;SDS011;55064;49.636;12.164;2023-06-10T11:56:19;5.10;;;2.60;;
68247;SDS011;55064;49.636;12.164;2023-06-10T11:58:46;4.88;;;2.45;;
68247;SDS011;55064;49.636;12.164;2023-06-10T12:01:21;6.00;;;2.50;;
68247;SDS011;55064;49.636;12.164;2023-06-10T12:04:00;5.10;;;2.50;;
68247;SDS011;55064;49.636;12.164;2023-06-10T12:06:37;6.07;;;2.90;;
68247;SDS011;55064;49.636;12.164;2023-06-10T12:09:13;5.50;;;2.70;;
68247;SDS011;55064;49.636;12.164;2023-06-10T12:11:39;5.68;;;2.70;;
68247;SDS011;55064;49.636;12.164;2023-06-10T12:14:04;5.90;;;3.10;;
68247;SDS011;55064;49.636;12.164;2023-06-10T12:16:33;4.90;;;3.00;;
68247;SDS011;55064;49.636;12.164;2023-06-10T12:19:02;5.50;;;3.13;;
68247;SDS011;55064;49.636;12.164;2023-06-10T12:21:29;6.07;;;3.88;;
68247;SDS011;55064;49.636;12.164;2023-06-10T12:24:08;6.40;;;3.93;;
68247;SDS011;55064;49.636;12.164;2023-06-10T12:26:41;6.70;;;4.18;;
68247;SDS011;55064;49.636;12.164;2023-06-10T12:31:55;7.25;;;4.65;;
68247;SDS011;55064;49.636;12.164;2023-06-10T12:34:32;7.00;;;4.30;;
68247;SDS011;55064;49.636;12.164;2023-06-10T12:37:00;6.40;;;4.00;;
68247;SDS011;55064;49.636;12.164;2023-06-10T12:39:26;6.80;;;3.95;;
68247;SDS011;55064;49.636;12.164;2023-06-10T12:41:54;7.25;;;4.65;;
68247;SDS011;55064;49.636;12.164;2023-06-10T12:44:32;9.52;;;5.00;;
68247;SDS011;55064;49.636;12.164;2023-06-10T12:46:59;7.60;;;4.90;;
68247;SDS011;55064;49.636;12.164;2023-06-10T12:49:25;7.03;;;4.27;;
68247;SDS011;55064;49.636;12.164;2023-06-10T12:51:53;7.55;;;4.72;;
68247;SDS011;55064;49.636;12.164;2023-06-10T12:54:19;8.50;;;5.07;;
68247;SDS011;55064;49.636;12.164;2023-06-10T12:56:44;9.70;;;5.70;;
68247;SDS011;55064;49.636;12.164;2023-06-10T12:59:10;9.30;;;5.70;;
68247;SDS011;55064;49.636;12.164;2023-06-10T13:01:38;8.87;;;5.47;;
68247;SDS011;55064;49.636;12.164;2023-06-10T13:04:04;8.83;;;5.37;;
68247;SDS011;55064;49.636;12.164;2023-06-10T13:06:31;9.85;;;6.10;;
68247;SDS011;55064;49.636;12.164;2023-06-10T13:08:58;10.02;;;6.45;;
68247;SDS011;55064;49.636;12.164;2023-06-10T13:11:24;10.33;;;6.87;;
68247;SDS011;55064;49.636;12.164;2023-06-10T13:13:50;9.75;;;6.55;;
68247;SDS011;55064;49.636;12.164;2023-06-10T13:16:17;12.07;;;7.45;;
68247;SDS011;55064;49.636;12.164;2023-06-10T13:18:42;10.53;;;7.70;;
68247;SDS011;55064;49.636;12.164;2023-06-10T13:21:08;10.05;;;6.47;;
68247;SDS011;55064;49.636;12.164;2023-06-10T13:23:36;11.60;;;6.80;;
68247;SDS011;55064;49.636;12.164;2023-06-10T13:26:01;9.13;;;5.90;;
68247;SDS011;55064;49.636;12.164;2023-06-10T13:28:29;8.73;;;6.07;;
68247;SDS011;55064;49.636;12.164;2023-06-10T13:30:55;14.23;;;7.13;;
68247;SDS011;55064;49.636;12.164;2023-06-10T13:33:23;9.88;;;6.22;;
68247;SDS011;55064;49.636;12.164;2023-06-10T13:35:48;9.67;;;7.10;;
68247;SDS011;55064;49.636;12.164;2023-06-10T13:38:16;10.23;;;6.80;;
68247;SDS011;55064;49.636;12.164;2023-06-10T13:40:43;10.07;;;7.10;;
68247;SDS011;55064;49.636;12.164;2023-06-10T13:43:08;9.98;;;5.88;;
68247;SDS011;55064;49.636;12.164;2023-06-10T13:45:34;9.63;;;6.32;;
68247;SDS011;55064;49.636;12.164;2023-06-10T13:48:00;11.43;;;6.57;;
68247;SDS011;55064;49.636;12.164;2023-06-10T13:50:26;8.82;;;6.18;;
68247;SDS011;55064;49.636;12.164;2023-06-10T13:52:52;9.97;;;6.40;;
68247;SDS011;55064;49.636;12.164;2023-06-10T13:55:19;9.85;;;6.55;;
68247;SDS011;55064;49.636;12.164;2023-06-10T13:57:45;10.10;;;6.53;;
68247;SDS011;55064;49.636;12.164;2023-06-10T14:00:12;8.43;;;5.63;;
68247;SDS011;55064;49.636;12.164;2023-06-10T14:02:41;12.10;;;6.93;;
68247;SDS011;55064;49.636;12.164;2023-06-10T14:05:06;9.23;;;6.30;;
68247;SDS011;55064;49.636;12.164;2023-06-10T14:07:33;9.30;;;5.30;;
68247;SDS011;55064;49.636;12.164;2023-06-10T14:09:58;9.53;;;5.97;;
68247;SDS011;55064;49.636;12.164;2023-06-10T14:12:24;9.97;;;6.57;;
68247;SDS011;55064;49.636;12.164;2023-06-10T14:14:49;9.63;;;6.40;;
68247;SDS011;55064;49.636;12.164;2023-06-10T14:17:15;10.03;;;6.10;;
68247;SDS011;55064;49.636;12.164;2023-06-10T14:19:40;7.80;;;4.75;;
68247;SDS011;55064;49.636;12.164;2023-06-10T14:22:07;8.93;;;5.00;;
68247;SDS011;55064;49.636;12.164;2023-06-10T14:24:33;8.45;;;5.32;;
68247;SDS011;55064;49.636;12.164;2023-06-10T14:27:00;9.77;;;5.63;;
68247;SDS011;55064;49.636;12.164;2023-06-10T14:29:26;8.17;;;4.47;;
68247;SDS011;55064;49.636;12.164;2023-06-10T14:31:54;8.20;;;4.93;;
68247;SDS011;55064;49.636;12.164;2023-06-10T14:34:20;8.90;;;4.63;;
68247;SDS011;55064;49.636;12.164;2023-06-10T14:36:50;8.05;;;4.60;;
68247;SDS011;55064;49.636;12.164;2023-06-10T14:39:15;8.98;;;4.80;;
68247;SDS011;55064;49.636;12.164;2023-06-10T14:41:41;8.67;;;5.00;;
68247;SDS011;55064;49.636;12.164;2023-06-10T14:44:06;8.13;;;4.40;;
68247;SDS011;55064;49.636;12.164;2023-06-10T14:46:31;8.53;;;5.20;;
68247;SDS011;55064;49.636;12.164;2023-06-10T14:49:01;8.57;;;6.03;;
68247;SDS011;55064;49.636;12.164;2023-06-10T14:51:27;8.43;;;5.57;;
68247;SDS011;55064;49.636;12.164;2023-06-10T14:53:53;9.00;;;5.50;;
68247;SDS011;55064;49.636;12.164;2023-06-10T14:56:18;8.87;;;5.17;;
68247;SDS011;55064;49.636;12.164;2023-06-10T14:58:43;8.83;;;5.40;;